Time;durP1;ratioP1;P1;durP2;ratioP2;P2;SDS_P1;SDS_P2;PMS_P1;PMS_P2;Temp;Humidity;BMP_temperature;BMP_pressure;BME280_temperature;BME280_humidity;BME280_pressure;Samples;Min_cycle;Max_cycle;Signal;HPM_P1;HPM_P2
2023/08/17 00:00:56;;;;;;;9.40;6.07;;;;;;;;;;5040359;28;20111;-79
2023/08/17 00:03:22;;;;;;;12.65;5.35;;;;;;;;;;5045722;28;20067;-79
2023/08/17 00:05:48;;;;;;;11.07;6.00;;;;;;;;;;5039767;28;20570;-78
2023/08/17 00:08:17;;;;;;;9.27;6.07;;;;;;;;;;5040159;28;20029;-78
2023/08/17 00:10:43;;;;;;;9.20;5.38;;;;;;;;;;5042799;28;20037;-78
2023/08/17 00:13:09;;;;;;;8.00;5.22;;;;;;;;;;5040405;28;20024;-78
2023/08/17 00:15:35;;;;;;;9.80;5.03;;;;;;;;;;5038808;28;20183;-76
2023/08/17 00:18:01;;;;;;;9.40;5.72;;;;;;;;;;5039559;28;20057;-77
2023/08/17 00:20:27;;;;;;;9.63;5.85;;;;;;;;;;5041633;28;20053;-79
2023/08/17 00:22:53;;;;;;;8.23;5.70;;;;;;;;;;5040315;28;20053;-78
2023/08/17 00:25:19;;;;;;;9.32;5.35;;;;;;;;;;5041765;28;20057;-78
2023/08/17 00:27:45;;;;;;;9.73;6.10;;;;;;;;;;5039324;28;20029;-76
2023/08/17 00:30:11;;;;;;;7.75;5.60;;;;;;;;;;5038772;28;20048;-77
2023/08/17 00:32:37;;;;;;;11.30;5.88;;;;;;;;;;5041252;28;20661;-78
2023/08/17 00:35:05;;;;;;;9.48;6.10;;;;;;;;;;5040407;28;20033;-77
2023/08/17 00:37:31;;;;;;;12.90;5.88;;;;;;;;;;5058641;28;20563;-79
2023/08/17 00:39:57;;;;;;;7.20;5.10;;;;;;;;;;5041402;28;20037;-78
2023/08/17 00:42:23;;;;;;;9.13;5.50;;;;;;;;;;5037978;28;20095;-76
2023/08/17 00:44:49;;;;;;;10.57;5.18;;;;;;;;;;5057246;28;20041;-77
2023/08/17 00:47:15;;;;;;;8.75;5.03;;;;;;;;;;5040065;28;20034;-77
2023/08/17 00:49:41;;;;;;;10.30;4.72;;;;;;;;;;5043436;28;20072;-78
2023/08/17 00:52:11;;;;;;;9.00;4.68;;;;;;;;;;5041344;28;20112;-77
2023/08/17 00:54:38;;;;;;;9.23;4.97;;;;;;;;;;5057998;28;20457;-78
2023/08/17 00:57:06;;;;;;;8.38;4.50;;;;;;;;;;5040783;28;20032;-76
2023/08/17 00:59:32;;;;;;;9.35;5.28;;;;;;;;;;5057406;28;20068;-78
2023/08/17 01:01:58;;;;;;;10.00;4.40;;;;;;;;;;5041399;28;20041;-78
2023/08/17 01:04:24;;;;;;;7.15;4.18;;;;;;;;;;5038912;28;20070;-78
2023/08/17 01:06:50;;;;;;;9.00;4.68;;;;;;;;;;5040034;28;20063;-78
2023/08/17 01:09:16;;;;;;;6.72;4.05;;;;;;;;;;5039843;28;20047;-77
2023/08/17 01:11:48;;;;;;;9.10;4.13;;;;;;;;;;5038941;28;20500;-77
2023/08/17 01:14:36;;;;;;;14.15;4.45;;;;;;;;;;5040905;28;20029;-78
2023/08/17 01:17:11;;;;;;;10.25;4.95;;;;;;;;;;5058141;28;20033;-75
2023/08/17 01:19:37;;;;;;;8.90;4.47;;;;;;;;;;5040588;28;20041;-77
2023/08/17 01:22:08;;;;;;;6.57;4.75;;;;;;;;;;5056966;28;20045;-78
2023/08/17 01:24:34;;;;;;;7.35;4.75;;;;;;;;;;5038724;28;20052;-78
2023/08/17 01:27:00;;;;;;;6.65;4.25;;;;;;;;;;5039547;28;20048;-78
2023/08/17 01:29:26;;;;;;;8.07;5.03;;;;;;;;;;5057089;28;20025;-78
2023/08/17 01:32:03;;;;;;;9.02;4.85;;;;;;;;;;5039307;28;20134;-78
2023/08/17 01:34:31;;;;;;;8.35;4.68;;;;;;;;;;5056122;28;20040;-76
2023/08/17 01:36:59;;;;;;;11.07;4.70;;;;;;;;;;5056864;28;20121;-78
2023/08/17 01:39:27;;;;;;;7.65;3.90;;;;;;;;;;5038649;28;20110;-79
2023/08/17 01:41:55;;;;;;;8.80;4.28;;;;;;;;;;5038576;28;20051;-75
2023/08/17 01:44:22;;;;;;;11.15;4.50;;;;;;;;;;5039597;28;20076;-78
2023/08/17 01:46:48;;;;;;;8.10;4.35;;;;;;;;;;5039157;28;20032;-77
2023/08/17 01:49:14;;;;;;;10.35;4.50;;;;;;;;;;5039368;28;20029;-78
2023/08/17 01:51:42;;;;;;;6.07;4.95;;;;;;;;;;5039156;28;20035;-78
2023/08/17 01:54:08;;;;;;;12.77;4.75;;;;;;;;;;5057873;28;20040;-78
2023/08/17 01:56:34;;;;;;;8.73;5.30;;;;;;;;;;5039507;28;20155;-78
2023/08/17 01:59:00;;;;;;;7.88;4.70;;;;;;;;;;5038524;28;20047;-76
2023/08/17 02:01:26;;;;;;;8.02;4.88;;;;;;;;;;5038048;28;20041;-76
2023/08/17 02:03:52;;;;;;;7.78;4.53;;;;;;;;;;5037987;28;20134;-78
2023/08/17 02:06:23;;;;;;;7.90;4.88;;;;;;;;;;5037387;28;20231;-77
2023/08/17 02:08:49;;;;;;;12.38;4.45;;;;;;;;;;5039608;28;20025;-78
2023/08/17 02:11:17;;;;;;;9.45;4.93;;;;;;;;;;5039307;28;20331;-77
2023/08/17 02:13:43;;;;;;;10.18;4.45;;;;;;;;;;5039415;28;20445;-78
2023/08/17 02:16:09;;;;;;;8.27;5.32;;;;;;;;;;5038229;28;20052;-76
2023/08/17 02:18:35;;;;;;;8.15;5.20;;;;;;;;;;5039531;28;20029;-78
2023/08/17 02:21:01;;;;;;;6.85;4.88;;;;;;;;;;5039434;28;20059;-77
2023/08/17 02:23:27;;;;;;;6.13;4.80;;;;;;;;;;5038448;28;20062;-80
2023/08/17 02:25:53;;;;;;;9.38;5.30;;;;;;;;;;5038931;28;20040;-79
2023/08/17 02:28:19;;;;;;;7.63;5.93;;;;;;;;;;5039015;28;20080;-77
2023/08/17 02:30:47;;;;;;;8.90;4.93;;;;;;;;;;5039051;28;20041;-77
2023/08/17 02:33:13;;;;;;;7.57;5.18;;;;;;;;;;5037738;28;20097;-76
2023/08/17 02:35:41;;;;;;;7.63;5.50;;;;;;;;;;5039411;28;21667;-79
2023/08/17 02:38:07;;;;;;;6.93;5.22;;;;;;;;;;5039502;28;20029;-78
2023/08/17 02:40:33;;;;;;;9.95;5.35;;;;;;;;;;5038780;28;20033;-78
2023/08/17 02:42:59;;;;;;;10.18;6.07;;;;;;;;;;5040398;28;20456;-79
2023/08/17 02:45:25;;;;;;;7.55;4.97;;;;;;;;;;5041993;28;20079;-78
2023/08/17 02:47:51;;;;;;;9.85;5.07;;;;;;;;;;5042705;28;20028;-80
2023/08/17 02:50:17;;;;;;;7.55;5.22;;;;;;;;;;5042967;28;20032;-77
2023/08/17 02:52:43;;;;;;;9.88;5.30;;;;;;;;;;5041822;28;20040;-79
2023/08/17 02:55:12;;;;;;;8.13;4.70;;;;;;;;;;5042927;28;20437;-76
2023/08/17 02:57:38;;;;;;;6.32;4.38;;;;;;;;;;5060428;28;20037;-79
2023/08/17 03:00:06;;;;;;;17.92;5.40;;;;;;;;;;5041374;28;20036;-79
2023/08/17 03:02:35;;;;;;;10.90;4.60;;;;;;;;;;5040746;28;20036;-79
2023/08/17 03:05:01;;;;;;;9.02;4.80;;;;;;;;;;5042532;28;20033;-79
2023/08/17 03:07:27;;;;;;;6.13;4.78;;;;;;;;;;5042192;28;20047;-77
2023/08/17 03:09:53;;;;;;;9.63;4.88;;;;;;;;;;5042441;28;20037;-78
2023/08/17 03:12:19;;;;;;;11.07;4.78;;;;;;;;;;5042394;28;20618;-76
2023/08/17 03:14:47;;;;;;;7.28;4.38;;;;;;;;;;5042641;28;20126;-78
2023/08/17 03:17:13;;;;;;;7.45;4.82;;;;;;;;;;5060727;28;20345;-76
2023/08/17 03:19:39;;;;;;;7.43;4.53;;;;;;;;;;5041098;28;20040;-78
2023/08/17 03:22:05;;;;;;;9.02;4.85;;;;;;;;;;5043012;28;20044;-79
2023/08/17 03:24:31;;;;;;;9.85;4.82;;;;;;;;;;5041338;28;20060;-78
2023/08/17 03:26:59;;;;;;;9.63;5.05;;;;;;;;;;5042521;28;20048;-78
2023/08/17 03:29:26;;;;;;;7.65;4.75;;;;;;;;;;5040295;28;20132;-77
2023/08/17 03:31:52;;;;;;;8.02;4.57;;;;;;;;;;5042029;28;20124;-76
2023/08/17 03:34:19;;;;;;;6.40;5.15;;;;;;;;;;5060585;28;20028;-77
2023/08/17 03:36:45;;;;;;;8.13;6.35;;;;;;;;;;5041459;28;20038;-78
2023/08/17 03:39:11;;;;;;;7.68;6.40;;;;;;;;;;5041455;28;20044;-78
2023/08/17 03:41:37;;;;;;;9.23;6.65;;;;;;;;;;5040758;28;20039;-77
2023/08/17 03:44:05;;;;;;;8.60;6.80;;;;;;;;;;5041811;28;20044;-79
2023/08/17 03:46:31;;;;;;;9.93;7.13;;;;;;;;;;5045342;28;20095;-77
2023/08/17 03:48:57;;;;;;;9.98;7.07;;;;;;;;;;5040320;28;20033;-78
2023/08/17 03:51:23;;;;;;;11.60;7.88;;;;;;;;;;5040177;28;20035;-77
2023/08/17 03:53:49;;;;;;;8.60;7.22;;;;;;;;;;5040051;28;20576;-76
2023/08/17 03:56:18;;;;;;;11.40;7.15;;;;;;;;;;5040821;28;20036;-79
2023/08/17 03:58:44;;;;;;;10.07;7.50;;;;;;;;;;5041580;28;20094;-78
2023/08/17 04:01:11;;;;;;;14.75;7.88;;;;;;;;;;5041794;28;20156;-78
2023/08/17 04:03:37;;;;;;;9.85;7.45;;;;;;;;;;5059547;28;20225;-79
2023/08/17 04:06:07;;;;;;;9.88;7.18;;;;;;;;;;5040237;28;20048;-76
2023/08/17 04:08:33;;;;;;;11.27;7.05;;;;;;;;;;5039283;28;20124;-77
2023/08/17 04:10:59;;;;;;;10.98;6.88;;;;;;;;;;5040380;28;20029;-76
2023/08/17 04:13:27;;;;;;;11.50;6.53;;;;;;;;;;5039976;28;20029;-78
2023/08/17 04:15:56;;;;;;;11.30;6.40;;;;;;;;;;5038876;28;20033;-78
2023/08/17 04:18:22;;;;;;;9.90;5.95;;;;;;;;;;5039696;28;20028;-79
2023/08/17 04:20:48;;;;;;;8.68;5.97;;;;;;;;;;5040038;28;20086;-77
2023/08/17 04:23:14;;;;;;;8.82;6.30;;;;;;;;;;5041627;28;21690;-79
2023/08/17 04:25:42;;;;;;;9.85;6.55;;;;;;;;;;5040047;28;20032;-77
2023/08/17 04:28:10;;;;;;;9.07;6.13;;;;;;;;;;5041321;28;20038;-79
2023/08/17 04:30:37;;;;;;;12.88;6.65;;;;;;;;;;5042385;28;20021;-77
2023/08/17 04:33:07;;;;;;;8.80;6.15;;;;;;;;;;5040585;28;20351;-78
2023/08/17 04:35:33;;;;;;;9.60;6.45;;;;;;;;;;5039990;28;20036;-77
2023/08/17 04:38:00;;;;;;;9.05;6.15;;;;;;;;;;5041109;28;20070;-78
2023/08/17 04:40:26;;;;;;;12.85;6.22;;;;;;;;;;5058968;28;20082;-78
2023/08/17 04:42:52;;;;;;;9.65;6.32;;;;;;;;;;5039679;28;20037;-77
2023/08/17 04:45:18;;;;;;;7.32;4.82;;;;;;;;;;5039899;28;20092;-78
2023/08/17 04:47:44;;;;;;;8.68;6.25;;;;;;;;;;5040903;28;20068;-76
2023/08/17 04:50:10;;;;;;;9.73;5.70;;;;;;;;;;5039685;28;20148;-77
2023/08/17 04:52:36;;;;;;;8.32;5.85;;;;;;;;;;5042236;28;20033;-78
2023/08/17 04:55:04;;;;;;;11.10;6.07;;;;;;;;;;5040701;28;20025;-76
2023/08/17 04:57:30;;;;;;;9.73;5.47;;;;;;;;;;5038876;28;20037;-79
2023/08/17 04:59:56;;;;;;;11.35;5.90;;;;;;;;;;5039107;28;20052;-78
2023/08/17 05:02:22;;;;;;;6.45;5.25;;;;;;;;;;5058920;28;20389;-77
2023/08/17 05:04:48;;;;;;;7.45;5.10;;;;;;;;;;5040509;28;20465;-78
2023/08/17 05:07:14;;;;;;;8.48;5.72;;;;;;;;;;5038954;28;20032;-78
2023/08/17 05:09:40;;;;;;;7.20;4.63;;;;;;;;;;5040542;28;20033;-77
2023/08/17 05:12:07;;;;;;;7.95;4.53;;;;;;;;;;5039553;28;20508;-79
2023/08/17 05:14:32;;;;;;;7.47;4.50;;;;;;;;;;5038379;28;20831;-78
2023/08/17 05:17:01;;;;;;;11.10;5.50;;;;;;;;;;5057578;28;20036;-79
2023/08/17 05:19:27;;;;;;;11.40;5.82;;;;;;;;;;5040648;28;20055;-78
2023/08/17 05:21:53;;;;;;;7.88;4.72;;;;;;;;;;5044081;28;20504;-77
2023/08/17 05:24:20;;;;;;;7.45;4.85;;;;;;;;;;5038081;28;21911;-77
2023/08/17 05:26:46;;;;;;;8.50;5.35;;;;;;;;;;5057457;28;20032;-79
2023/08/17 05:29:12;;;;;;;8.07;4.70;;;;;;;;;;5039613;28;20401;-77
2023/08/17 05:31:38;;;;;;;10.07;5.43;;;;;;;;;;5038114;28;20036;-80
2023/08/17 05:34:06;;;;;;;7.07;5.28;;;;;;;;;;5040136;28;20392;-78
2023/08/17 05:36:32;;;;;;;8.73;5.05;;;;;;;;;;5038907;28;20037;-77
2023/08/17 05:38:58;;;;;;;7.70;5.22;;;;;;;;;;5038742;28;20099;-79
2023/08/17 05:41:26;;;;;;;7.32;5.78;;;;;;;;;;5038998;28;20029;-78
2023/08/17 05:43:52;;;;;;;12.25;5.72;;;;;;;;;;5057003;28;20032;-80
2023/08/17 05:46:18;;;;;;;10.80;6.65;;;;;;;;;;5040579;28;20495;-77
2023/08/17 05:48:47;;;;;;;9.23;5.57;;;;;;;;;;5057784;28;20032;-78
2023/08/17 05:51:12;;;;;;;8.82;6.22;;;;;;;;;;5057603;28;20048;-78
2023/08/17 05:53:41;;;;;;;9.77;5.68;;;;;;;;;;5038755;28;20365;-78
2023/08/17 05:56:07;;;;;;;8.13;6.85;;;;;;;;;;5039887;28;20041;-75
2023/08/17 05:58:33;;;;;;;11.52;7.97;;;;;;;;;;5041287;28;20033;-78
2023/08/17 06:01:09;;;;;;;14.38;6.78;;;;;;;;;;5038789;28;20094;-79
2023/08/17 06:03:35;;;;;;;8.85;7.85;;;;;;;;;;5038669;28;20033;-78
2023/08/17 06:06:05;;;;;;;10.18;7.05;;;;;;;;;;5039559;28;20079;-78
2023/08/17 06:08:33;;;;;;;8.98;6.25;;;;;;;;;;5039609;28;20053;-77
2023/08/17 06:11:02;;;;;;;15.07;8.98;;;;;;;;;;5040230;28;20055;-78
2023/08/17 06:13:28;;;;;;;13.70;7.57;;;;;;;;;;5039113;28;20037;-77
2023/08/17 06:15:56;;;;;;;9.82;7.20;;;;;;;;;;5038911;28;20036;-78
2023/08/17 06:18:22;;;;;;;12.40;7.38;;;;;;;;;;5042909;28;20063;-76
2023/08/17 06:20:51;;;;;;;10.38;5.97;;;;;;;;;;5062120;28;20120;-79
2023/08/17 06:23:20;;;;;;;10.38;7.07;;;;;;;;;;5042661;28;20044;-76
2023/08/17 06:25:46;;;;;;;13.82;5.93;;;;;;;;;;5041779;28;20033;-80
2023/08/17 06:28:12;;;;;;;12.75;7.32;;;;;;;;;;5043376;28;20033;-79
2023/08/17 06:30:38;;;;;;;14.70;6.50;;;;;;;;;;5042476;28;20064;-77
2023/08/17 06:33:04;;;;;;;16.55;7.30;;;;;;;;;;5041362;28;20037;-79
2023/08/17 06:35:33;;;;;;;7.60;6.80;;;;;;;;;;5042281;28;20036;-78
2023/08/17 06:37:59;;;;;;;12.00;8.10;;;;;;;;;;5043616;28;20037;-79
2023/08/17 06:40:28;;;;;;;11.20;8.15;;;;;;;;;;5044649;28;20527;-78
2023/08/17 06:42:56;;;;;;;11.18;7.45;;;;;;;;;;5044859;28;20060;-78
2023/08/17 06:45:22;;;;;;;9.75;7.45;;;;;;;;;;5042231;28;20784;-78
2023/08/17 06:47:48;;;;;;;11.88;7.05;;;;;;;;;;5043416;28;20060;-77
2023/08/17 06:50:14;;;;;;;10.88;7.25;;;;;;;;;;5041035;28;20033;-77
2023/08/17 06:52:41;;;;;;;12.00;7.55;;;;;;;;;;5044733;28;20045;-78
2023/08/17 06:55:07;;;;;;;15.98;7.47;;;;;;;;;;5041419;28;20025;-77
2023/08/17 06:57:33;;;;;;;10.77;7.75;;;;;;;;;;5041224;28;20576;-77
2023/08/17 07:00:01;;;;;;;14.20;8.90;;;;;;;;;;5041635;28;20035;-79
2023/08/17 07:02:27;;;;;;;13.10;8.40;;;;;;;;;;5041281;28;20369;-78
2023/08/17 07:04:53;;;;;;;10.27;7.70;;;;;;;;;;5060060;28;20033;-78
2023/08/17 07:07:19;;;;;;;14.80;7.80;;;;;;;;;;5060957;28;20033;-78
2023/08/17 07:09:45;;;;;;;12.88;8.77;;;;;;;;;;5041554;28;20044;-77
2023/08/17 07:12:11;;;;;;;12.18;7.25;;;;;;;;;;5043766;28;20903;-77
2023/08/17 07:14:37;;;;;;;14.70;9.38;;;;;;;;;;5039950;28;20044;-76
2023/08/17 07:17:05;;;;;;;16.58;9.32;;;;;;;;;;5059774;28;20099;-80
2023/08/17 07:19:34;;;;;;;13.57;9.20;;;;;;;;;;5061499;28;20127;-77
2023/08/17 07:22:00;;;;;;;12.30;8.57;;;;;;;;;;5042211;28;20106;-79
2023/08/17 07:24:28;;;;;;;15.75;9.27;;;;;;;;;;5042594;28;20036;-75
2023/08/17 07:26:54;;;;;;;11.73;8.77;;;;;;;;;;5040768;28;20358;-79
2023/08/17 07:29:25;;;;;;;9.90;7.35;;;;;;;;;;5042359;28;20025;-76
2023/08/17 07:31:51;;;;;;;13.73;7.93;;;;;;;;;;5042454;28;20571;-79
2023/08/17 07:34:17;;;;;;;13.75;8.27;;;;;;;;;;5043502;28;20087;-76
2023/08/17 07:36:43;;;;;;;17.58;9.68;;;;;;;;;;5041254;28;20703;-78
2023/08/17 07:39:09;;;;;;;13.82;9.70;;;;;;;;;;5039542;28;20044;-79
2023/08/17 07:41:35;;;;;;;12.20;9.15;;;;;;;;;;5040704;28;20483;-78
2023/08/17 07:44:01;;;;;;;16.02;9.50;;;;;;;;;;5043093;28;20044;-79
2023/08/17 07:46:27;;;;;;;11.07;8.40;;;;;;;;;;5040226;28;20022;-77
2023/08/17 07:48:55;;;;;;;11.77;8.48;;;;;;;;;;5039077;28;20037;-77
2023/08/17 07:51:21;;;;;;;14.85;8.80;;;;;;;;;;5040659;28;20092;-78
2023/08/17 07:53:50;;;;;;;16.50;9.18;;;;;;;;;;5040220;28;20025;-77
2023/08/17 07:56:18;;;;;;;12.52;8.13;;;;;;;;;;5041852;28;20032;-78
2023/08/17 07:58:44;;;;;;;18.85;11.38;;;;;;;;;;5041594;28;20037;-81
2023/08/17 08:01:10;;;;;;;14.07;9.77;;;;;;;;;;5059065;28;20548;-78
2023/08/17 08:03:36;;;;;;;12.95;8.85;;;;;;;;;;5042290;28;20040;-75
2023/08/17 08:06:04;;;;;;;12.50;7.82;;;;;;;;;;5040106;28;20029;-77
2023/08/17 08:08:30;;;;;;;9.10;6.80;;;;;;;;;;5042194;28;20040;-77
2023/08/17 08:10:58;;;;;;;9.82;6.65;;;;;;;;;;5058688;28;20041;-78
2023/08/17 08:13:27;;;;;;;10.48;6.93;;;;;;;;;;5040389;28;20024;-76
2023/08/17 08:15:55;;;;;;;14.27;8.45;;;;;;;;;;5038611;28;20040;-78
2023/08/17 08:18:21;;;;;;;11.90;8.63;;;;;;;;;;5040356;28;20044;-79
2023/08/17 08:20:48;;;;;;;14.38;8.90;;;;;;;;;;5039754;28;20029;-79
2023/08/17 08:23:14;;;;;;;24.02;12.07;;;;;;;;;;5040227;28;20030;-77
2023/08/17 08:25:41;;;;;;;23.70;12.35;;;;;;;;;;5038461;28;20020;-76
2023/08/17 08:28:08;;;;;;;17.35;10.73;;;;;;;;;;5040395;28;20082;-78
2023/08/17 08:30:34;;;;;;;21.65;12.02;;;;;;;;;;5040968;28;20040;-76
2023/08/17 08:33:00;;;;;;;20.10;12.60;;;;;;;;;;5042100;28;20634;-79
2023/08/17 08:35:26;;;;;;;22.63;12.00;;;;;;;;;;5058479;28;20020;-76
2023/08/17 08:37:52;;;;;;;19.83;12.48;;;;;;;;;;5040841;28;20488;-77
2023/08/17 08:40:20;;;;;;;18.90;11.88;;;;;;;;;;5038602;28;20041;-78
2023/08/17 08:42:46;;;;;;;18.92;11.85;;;;;;;;;;5039171;28;20036;-77
2023/08/17 08:45:12;;;;;;;19.42;11.48;;;;;;;;;;5039381;28;20090;-75
2023/08/17 08:47:38;;;;;;;18.90;10.48;;;;;;;;;;5041668;28;20029;-78
2023/08/17 08:50:05;;;;;;;18.08;10.80;;;;;;;;;;5058284;28;20112;-78
2023/08/17 08:52:34;;;;;;;19.83;11.77;;;;;;;;;;5040040;28;20029;-78
2023/08/17 08:55:03;;;;;;;18.85;10.98;;;;;;;;;;5038456;28;20047;-76
2023/08/17 08:57:29;;;;;;;20.95;11.77;;;;;;;;;;5039756;28;20462;-77
2023/08/17 08:59:56;;;;;;;19.65;10.70;;;;;;;;;;5040091;28;20033;-78
2023/08/17 09:02:22;;;;;;;21.58;11.18;;;;;;;;;;5039788;28;20091;-77
2023/08/17 09:04:48;;;;;;;16.40;11.32;;;;;;;;;;5037192;28;20083;-77
2023/08/17 09:07:14;;;;;;;17.90;10.25;;;;;;;;;;5038959;28;20829;-78
2023/08/17 09:09:40;;;;;;;22.17;11.88;;;;;;;;;;5040002;28;20041;-78
2023/08/17 09:12:09;;;;;;;17.50;11.15;;;;;;;;;;5057935;28;20038;-76
2023/08/17 09:14:37;;;;;;;18.65;10.88;;;;;;;;;;5037472;28;20043;-76
2023/08/17 09:17:03;;;;;;;19.55;10.75;;;;;;;;;;5039162;28;20040;-75
2023/08/17 09:19:31;;;;;;;20.17;12.23;;;;;;;;;;5040065;28;20540;-79
2023/08/17 09:21:57;;;;;;;19.90;11.55;;;;;;;;;;5038355;28;20040;-77
2023/08/17 09:24:23;;;;;;;18.00;10.95;;;;;;;;;;5039455;28;20041;-79
2023/08/17 09:26:50;;;;;;;21.70;12.35;;;;;;;;;;5039069;28;20420;-76
2023/08/17 09:29:20;;;;;;;21.60;12.93;;;;;;;;;;5038612;28;20032;-77
2023/08/17 09:31:48;;;;;;;21.67;12.77;;;;;;;;;;5057773;28;20047;-76
2023/08/17 09:34:18;;;;;;;21.02;13.00;;;;;;;;;;5040640;28;20033;-79
2023/08/17 09:36:47;;;;;;;19.80;12.23;;;;;;;;;;5038551;28;20037;-77
2023/08/17 09:39:15;;;;;;;21.65;13.07;;;;;;;;;;5039094;28;20068;-78
2023/08/17 09:41:44;;;;;;;26.15;14.52;;;;;;;;;;5037482;28;20029;-75
2023/08/17 09:44:11;;;;;;;21.10;13.88;;;;;;;;;;5039302;28;20043;-77
2023/08/17 09:46:38;;;;;;;22.83;13.80;;;;;;;;;;5039130;28;20044;-78
2023/08/17 09:49:09;;;;;;;24.48;14.43;;;;;;;;;;5057659;28;20432;-78
2023/08/17 09:51:35;;;;;;;29.75;15.38;;;;;;;;;;5056451;28;20519;-77
2023/08/17 09:54:03;;;;;;;26.60;15.90;;;;;;;;;;5038195;28;20037;-77
2023/08/17 09:56:31;;;;;;;21.92;13.05;;;;;;;;;;5038726;28;20116;-78
2023/08/17 09:58:57;;;;;;;22.98;12.95;;;;;;;;;;5038692;28;20028;-78
2023/08/17 10:01:24;;;;;;;27.25;14.23;;;;;;;;;;5038124;28;20029;-77
2023/08/17 10:03:50;;;;;;;22.10;12.48;;;;;;;;;;5039662;28;20037;-78
2023/08/17 10:06:18;;;;;;;22.63;12.40;;;;;;;;;;5038195;28;20107;-79
2023/08/17 10:08:48;;;;;;;23.60;14.63;;;;;;;;;;5038013;28;20033;-79
2023/08/17 10:11:19;;;;;;;22.17;13.43;;;;;;;;;;5061410;28;20040;-77
2023/08/17 10:13:57;;;;;;;25.80;13.82;;;;;;;;;;5039560;28;20036;-77
2023/08/17 10:16:26;;;;;;;22.58;14.60;;;;;;;;;;5045281;28;20732;-78
2023/08/17 10:18:52;;;;;;;24.92;13.98;;;;;;;;;;5038865;28;20033;-75
2023/08/17 10:21:32;;;;;;;27.48;14.00;;;;;;;;;;5039074;28;20051;-76
2023/08/17 10:23:59;;;;;;;19.40;13.23;;;;;;;;;;5037805;28;20048;-78
2023/08/17 10:26:28;;;;;;;26.15;13.55;;;;;;;;;;5056307;28;20461;-77
2023/08/17 10:28:57;;;;;;;18.95;11.82;;;;;;;;;;5038647;28;20039;-76
2023/08/17 10:31:26;;;;;;;23.35;13.20;;;;;;;;;;5039683;28;20033;-77
2023/08/17 10:33:52;;;;;;;19.13;12.00;;;;;;;;;;5039012;28;20422;-77
2023/08/17 10:36:19;;;;;;;21.75;11.27;;;;;;;;;;5040125;28;20037;-79
2023/08/17 10:38:45;;;;;;;20.58;13.23;;;;;;;;;;5039111;28;20056;-79
2023/08/17 10:41:12;;;;;;;23.05;12.43;;;;;;;;;;5039213;28;20122;-76
2023/08/17 10:43:54;;;;;;;22.13;12.93;;;;;;;;;;5036264;28;20108;-77
2023/08/17 10:46:20;;;;;;;22.30;13.23;;;;;;;;;;5039592;28;20495;-77
2023/08/17 10:48:46;;;;;;;19.52;11.38;;;;;;;;;;5037709;28;20047;-78
2023/08/17 10:51:18;;;;;;;21.50;12.57;;;;;;;;;;5037801;28;20040;-79
2023/08/17 10:53:44;;;;;;;20.00;12.50;;;;;;;;;;5040057;28;20115;-76
2023/08/17 10:56:14;;;;;;;20.98;12.00;;;;;;;;;;5037240;28;20059;-77
2023/08/17 10:58:42;;;;;;;19.52;12.00;;;;;;;;;;5038789;28;20072;-77
2023/08/17 11:01:09;;;;;;;20.75;13.20;;;;;;;;;;5056352;28;20082;-76
2023/08/17 11:03:36;;;;;;;21.55;12.85;;;;;;;;;;5039257;28;20029;-76
2023/08/17 11:06:14;;;;;;;18.00;11.45;;;;;;;;;;5043994;28;20358;-78
2023/08/17 11:08:51;;;;;;;17.73;10.70;;;;;;;;;;5041129;28;20029;-79
2023/08/17 11:11:19;;;;;;;23.30;12.95;;;;;;;;;;5041110;28;20967;-78
2023/08/17 11:13:47;;;;;;;17.98;12.13;;;;;;;;;;5042064;28;20171;-78
2023/08/17 11:16:14;;;;;;;21.80;13.05;;;;;;;;;;5041700;28;20132;-78
2023/08/17 11:18:44;;;;;;;19.63;12.23;;;;;;;;;;5041469;28;20167;-77
2023/08/17 11:21:10;;;;;;;21.50;12.45;;;;;;;;;;5040190;28;20040;-77
2023/08/17 11:23:37;;;;;;;20.55;12.65;;;;;;;;;;5040609;28;20029;-76
2023/08/17 11:26:03;;;;;;;22.40;13.70;;;;;;;;;;5040750;28;20056;-75
2023/08/17 11:28:36;;;;;;;22.60;12.57;;;;;;;;;;5040984;28;20030;-78
2023/08/17 11:31:12;;;;;;;21.02;13.23;;;;;;;;;;5039879;28;20083;-78
2023/08/17 11:33:39;;;;;;;25.40;15.48;;;;;;;;;;5038839;28;20067;-79
2023/08/17 11:36:08;;;;;;;26.15;14.15;;;;;;;;;;5043620;28;20044;-79
2023/08/17 11:38:35;;;;;;;20.33;13.57;;;;;;;;;;5060606;28;20040;-77
2023/08/17 11:41:02;;;;;;;24.27;14.50;;;;;;;;;;5040083;28;20052;-77
2023/08/17 11:43:29;;;;;;;23.52;14.18;;;;;;;;;;5042427;28;20036;-77
2023/08/17 11:45:55;;;;;;;20.27;13.20;;;;;;;;;;5059926;28;20021;-78
2023/08/17 11:48:21;;;;;;;23.42;12.48;;;;;;;;;;5042166;28;20097;-79
2023/08/17 11:50:49;;;;;;;19.83;13.73;;;;;;;;;;5042022;28;20025;-78
2023/08/17 11:53:17;;;;;;;22.85;13.88;;;;;;;;;;5042345;28;20035;-77
2023/08/17 11:55:43;;;;;;;21.40;13.88;;;;;;;;;;5043140;28;20417;-78
2023/08/17 11:58:11;;;;;;;25.38;13.80;;;;;;;;;;5041302;28;21699;-79
2023/08/17 12:00:42;;;;;;;24.58;14.13;;;;;;;;;;5042409;28;20056;-78
2023/08/17 12:03:08;;;;;;;19.77;13.00;;;;;;;;;;5041595;28;20476;-76
2023/08/17 12:05:34;;;;;;;17.85;12.05;;;;;;;;;;5039423;28;20123;-76
2023/08/17 12:08:03;;;;;;;19.85;13.35;;;;;;;;;;5040539;28;20044;-79
2023/08/17 12:10:29;;;;;;;18.52;11.77;;;;;;;;;;5042581;28;20025;-75
2023/08/17 12:12:59;;;;;;;17.48;12.20;;;;;;;;;;5039783;28;20094;-77
2023/08/17 12:15:30;;;;;;;21.40;13.52;;;;;;;;;;5040447;28;20922;-78
2023/08/17 12:17:59;;;;;;;17.80;11.27;;;;;;;;;;5043924;28;20029;-76
2023/08/17 12:20:28;;;;;;;17.52;10.25;;;;;;;;;;5040909;28;20065;-78
2023/08/17 12:22:54;;;;;;;20.85;11.40;;;;;;;;;;5045751;28;20033;-77
2023/08/17 12:25:25;;;;;;;20.90;12.43;;;;;;;;;;5059941;28;20037;-78
2023/08/17 12:27:51;;;;;;;17.60;12.38;;;;;;;;;;5040698;28;20457;-78
2023/08/17 12:30:31;;;;;;;16.92;11.98;;;;;;;;;;5040506;28;20021;-78
2023/08/17 12:32:57;;;;;;;25.95;12.05;;;;;;;;;;5040061;28;20025;-77
2023/08/17 12:35:24;;;;;;;23.05;11.15;;;;;;;;;;5058812;28;20079;-78
2023/08/17 12:37:50;;;;;;;17.85;11.63;;;;;;;;;;5038222;28;20612;-80
2023/08/17 12:40:16;;;;;;;21.83;13.10;;;;;;;;;;5058614;28;20029;-79
2023/08/17 12:42:42;;;;;;;15.23;11.57;;;;;;;;;;5042247;28;20055;-77
2023/08/17 12:45:08;;;;;;;16.20;10.98;;;;;;;;;;5038347;28;20037;-79
2023/08/17 12:47:37;;;;;;;16.17;10.65;;;;;;;;;;5040493;28;20029;-79
2023/08/17 12:50:03;;;;;;;13.88;10.80;;;;;;;;;;5039067;28;20300;-79
2023/08/17 12:52:29;;;;;;;16.75;11.70;;;;;;;;;;5039579;28;20033;-79
2023/08/17 12:54:56;;;;;;;15.18;10.68;;;;;;;;;;5057942;28;20061;-78
2023/08/17 12:57:22;;;;;;;18.92;12.27;;;;;;;;;;5039394;28;20118;-76
2023/08/17 12:59:50;;;;;;;18.33;12.27;;;;;;;;;;5039506;28;20120;-79
2023/08/17 13:02:16;;;;;;;16.50;12.10;;;;;;;;;;5040768;28;20037;-76
2023/08/17 13:04:42;;;;;;;15.95;11.50;;;;;;;;;;5040357;28;20118;-79
2023/08/17 13:07:10;;;;;;;17.67;11.98;;;;;;;;;;5039963;28;20025;-78
2023/08/17 13:09:36;;;;;;;15.48;10.80;;;;;;;;;;5038318;28;20439;-80
2023/08/17 13:12:05;;;;;;;13.77;10.40;;;;;;;;;;5057426;28;20029;-79
2023/08/17 13:14:33;;;;;;;15.15;10.20;;;;;;;;;;5038997;28;20030;-79
2023/08/17 13:16:59;;;;;;;14.38;9.75;;;;;;;;;;5057270;28;20036;-78
2023/08/17 13:19:25;;;;;;;15.75;9.20;;;;;;;;;;5040764;28;20052;-78
2023/08/17 13:21:51;;;;;;;17.90;10.30;;;;;;;;;;5039772;28;20025;-79
2023/08/17 13:24:17;;;;;;;16.02;12.07;;;;;;;;;;5039753;28;20033;-78
2023/08/17 13:26:43;;;;;;;13.32;9.63;;;;;;;;;;5040264;28;20080;-79
2023/08/17 13:29:09;;;;;;;16.75;11.73;;;;;;;;;;5039712;28;20856;-76
2023/08/17 13:31:35;;;;;;;20.48;13.63;;;;;;;;;;5039592;28;20025;-78
2023/08/17 13:34:01;;;;;;;18.23;12.05;;;;;;;;;;5039430;28;21730;-80
2023/08/17 13:36:28;;;;;;;18.23;12.50;;;;;;;;;;5039214;28;20033;-79
2023/08/17 13:38:56;;;;;;;18.83;13.30;;;;;;;;;;5039482;28;20078;-76
2023/08/17 13:41:25;;;;;;;17.88;13.80;;;;;;;;;;5038106;28;20605;-78
2023/08/17 13:43:51;;;;;;;21.88;11.80;;;;;;;;;;5056968;28;20043;-75
2023/08/17 13:46:17;;;;;;;19.70;12.32;;;;;;;;;;5038959;28;20094;-78
2023/08/17 13:48:45;;;;;;;18.35;12.68;;;;;;;;;;5038837;28;20024;-79
2023/08/17 13:51:11;;;;;;;18.83;10.02;;;;;;;;;;5037909;28;20036;-79
2023/08/17 13:53:37;;;;;;;13.93;10.52;;;;;;;;;;5039267;28;20029;-78
2023/08/17 13:56:03;;;;;;;16.20;10.70;;;;;;;;;;5038925;28;20378;-78
2023/08/17 13:58:29;;;;;;;17.30;11.63;;;;;;;;;;5039493;28;20045;-79
2023/08/17 14:00:55;;;;;;;17.88;12.13;;;;;;;;;;5038585;28;20025;-78
2023/08/17 14:03:21;;;;;;;13.55;11.43;;;;;;;;;;5038891;28;20115;-78
2023/08/17 14:05:47;;;;;;;21.55;11.63;;;;;;;;;;5038782;28;20033;-79
2023/08/17 14:08:13;;;;;;;17.85;12.10;;;;;;;;;;5040696;28;20032;-77
2023/08/17 14:10:39;;;;;;;16.05;10.27;;;;;;;;;;5037174;28;20033;-78
2023/08/17 14:13:05;;;;;;;16.83;11.65;;;;;;;;;;5038274;28;20029;-78
2023/08/17 14:15:33;;;;;;;16.85;10.40;;;;;;;;;;5039832;28;20083;-76
2023/08/17 14:17:59;;;;;;;10.77;8.07;;;;;;;;;;5042986;28;20071;-78
2023/08/17 14:20:25;;;;;;;12.23;8.57;;;;;;;;;;5037561;28;20025;-78
2023/08/17 14:22:51;;;;;;;11.80;8.20;;;;;;;;;;5043982;28;20040;-78
2023/08/17 14:25:17;;;;;;;12.88;8.60;;;;;;;;;;5039942;28;20033;-79
2023/08/17 14:27:43;;;;;;;11.55;7.80;;;;;;;;;;5057228;28;20037;-79